createdAt,value
2018-06-16T00:00:28.959Z,67.47
2018-06-16T00:01:29.092Z,66.70
2018-06-16T00:02:29.268Z,65.94
2018-06-16T00:03:29.459Z,64.88
2018-06-16T00:04:29.641Z,65.17
2018-06-16T00:05:29.826Z,65.65
2018-06-16T00:06:30.015Z,64.88
2018-06-16T00:07:30.191Z,64.69
2018-06-16T00:08:30.384Z,64.59
2018-06-16T00:09:30.552Z,64.98
2018-06-16T00:10:30.746Z,64.31
2018-06-16T00:11:30.912Z,65.55
2018-06-16T00:12:31.099Z,66.03
2018-06-16T00:13:31.299Z,66.32
2018-06-16T00:14:31.464Z,67.08
2018-06-16T00:15:31.644Z,66.99
2018-06-16T00:16:31.862Z,67.18
2018-06-16T00:17:32.008Z,66.89
2018-06-16T00:18:32.187Z,66.61
2018-06-16T00:19:32.385Z,66.80
2018-06-16T00:20:32.555Z,66.13
2018-06-16T00:21:32.741Z,65.45
2018-06-16T00:22:32.930Z,65.55
2018-06-16T00:23:33.116Z,65.84
2018-06-16T00:24:33.302Z,65.36
2018-06-16T00:25:33.484Z,65.36
2018-06-16T00:26:33.669Z,65.84
2018-06-16T00:27:33.861Z,64.88
2018-06-16T00:28:34.036Z,65.08
2018-06-16T00:29:34.223Z,64.75
2018-06-16T00:30:34.407Z,64.12
2018-06-16T00:31:34.584Z,64.12
2018-06-16T00:32:34.770Z,63.73
2018-06-16T00:33:34.962Z,65.17
2018-06-16T00:34:35.132Z,64.18
2018-06-16T00:35:35.310Z,64.56
2018-06-16T00:36:35.515Z,64.12
2018-06-16T00:37:35.673Z,63.93
2018-06-16T00:38:35.881Z,63.80
2018-06-16T00:39:36.048Z,63.13
2018-06-16T00:40:36.233Z,61.98
2018-06-16T00:41:36.443Z,62.20
2018-06-16T00:42:36.606Z,62.20
2018-06-16T00:43:36.788Z,62.59
2018-06-16T00:44:36.968Z,62.20
2018-06-16T00:45:37.153Z,61.02
2018-06-16T00:46:37.344Z,60.00
2018-06-16T00:47:37.511Z,59.11
2018-06-16T00:48:37.695Z,58.06
2018-06-16T00:49:37.877Z,57.20
2018-06-16T00:50:38.079Z,55.76
2018-06-16T00:51:38.259Z,53.94
2018-06-16T00:52:38.443Z,54.71
2018-06-16T00:53:38.639Z,54.80
2018-06-16T00:54:38.804Z,54.14
2018-06-16T00:55:39.003Z,54.23
2018-06-16T00:56:39.171Z,54.33
2018-06-16T00:57:39.363Z,53.75
2018-06-16T00:58:39.550Z,52.80
2018-06-16T00:59:39.738Z,52.32
2018-06-16T01:00:39.921Z,51.75
2018-06-16T01:01:40.105Z,52.03
2018-06-16T01:02:40.287Z,51.87
2018-06-16T01:03:40.474Z,52.03
2018-06-16T01:04:40.661Z,51.84
2018-06-16T01:05:40.849Z,52.63
2018-06-16T01:06:41.035Z,54.43
2018-06-16T01:07:41.224Z,54.80
2018-06-16T01:08:41.407Z,53.37
2018-06-16T01:09:41.590Z,52.80
2018-06-16T01:10:41.783Z,51.93
2018-06-16T01:11:41.960Z,51.93
2018-06-16T01:12:42.142Z,52.13
2018-06-16T01:13:42.331Z,52.51
2018-06-16T01:14:42.517Z,52.99
2018-06-16T01:15:42.702Z,52.99
2018-06-16T01:16:42.908Z,53.28
2018-06-16T01:17:43.066Z,54.23
2018-06-16T01:18:43.255Z,55.19
2018-06-16T01:19:43.433Z,55.47
2018-06-16T01:20:43.634Z,55.19
2018-06-16T01:21:43.801Z,55.86
2018-06-16T01:22:43.982Z,56.34
2018-06-16T01:23:44.174Z,55.76
2018-06-16T01:24:46.198Z,54.71
2018-06-16T01:25:44.517Z,54.80
2018-06-16T01:26:44.686Z,54.71
2018-06-16T01:27:44.869Z,54.80
2018-06-16T01:28:45.031Z,54.74
2018-06-16T01:29:45.231Z,54.90
2018-06-16T01:30:45.399Z,54.71
2018-06-16T01:31:45.583Z,54.93
2018-06-16T01:32:45.766Z,54.74
2018-06-16T01:33:45.943Z,54.90
2018-06-16T01:34:46.160Z,54.07
2018-06-16T01:35:46.304Z,53.85
2018-06-16T01:36:46.499Z,53.18
2018-06-16T01:37:46.687Z,54.61
2018-06-16T01:38:46.894Z,53.47
2018-06-16T01:39:47.058Z,51.17
2018-06-16T01:40:47.251Z,50.50
2018-06-16T01:41:47.428Z,50.70
2018-06-16T01:42:47.615Z,50.60
2018-06-16T01:43:47.788Z,50.70
2018-06-16T01:44:47.970Z,50.89
2018-06-16T01:45:48.169Z,50.60
2018-06-16T01:46:48.339Z,50.31
2018-06-16T01:47:48.520Z,49.45
2018-06-16T01:48:48.911Z,48.30
2018-06-16T01:49:48.855Z,47.25
2018-06-16T01:50:49.061Z,46.10
2018-06-16T01:51:49.251Z,44.17
2018-06-16T01:52:49.437Z,42.94
2018-06-16T01:53:49.620Z,41.70
2018-06-16T01:54:49.780Z,41.32
2018-06-16T01:55:49.962Z,40.84
2018-06-16T01:56:50.166Z,41.22
2018-06-16T01:57:50.329Z,40.94
2018-06-16T01:58:50.553Z,40.08
2018-06-16T01:59:50.677Z,37.76
2018-06-16T02:00:50.886Z,36.61
2018-06-16T02:01:51.055Z,35.57
2018-06-16T02:02:51.218Z,35.57
2018-06-16T02:03:51.427Z,34.89
2018-06-16T02:04:51.622Z,34.34
2018-06-16T02:05:51.746Z,34.42
2018-06-16T02:06:51.954Z,35.68
2018-06-16T02:07:52.159Z,36.54
2018-06-16T02:08:52.307Z,37.21
2018-06-16T02:09:52.482Z,36.90
2018-06-16T02:10:52.660Z,36.92
2018-06-16T02:11:52.855Z,37.40
2018-06-16T02:12:53.021Z,37.40
2018-06-16T02:13:53.183Z,37.78
2018-06-16T02:14:53.376Z,37.09
2018-06-16T02:15:53.586Z,35.94
2018-06-16T02:16:53.731Z,36.14
2018-06-16T02:17:53.875Z,36.25
2018-06-16T02:18:54.105Z,36.35
2018-06-16T02:19:54.268Z,36.14
2018-06-16T02:20:54.441Z,35.57
2018-06-16T02:21:54.623Z,35.66
2018-06-16T02:22:54.779Z,34.61
2018-06-16T02:23:54.946Z,34.51
2018-06-16T02:24:55.130Z,34.14
2018-06-16T02:25:55.303Z,34.14
2018-06-16T02:26:55.500Z,34.53
2018-06-16T02:27:55.710Z,35.96
2018-06-16T02:28:55.875Z,37.30
2018-06-16T02:29:56.042Z,37.49
2018-06-16T02:30:56.221Z,37.78
2018-06-16T02:31:56.404Z,39.22
2018-06-16T02:32:56.589Z,37.85
2018-06-16T02:33:56.764Z,36.71
2018-06-16T02:34:56.985Z,36.33
2018-06-16T02:35:57.134Z,36.90
2018-06-16T02:36:57.297Z,37.38
2018-06-16T02:37:57.508Z,37.38
2018-06-16T02:38:57.646Z,37.21
2018-06-16T02:39:57.826Z,37.76
2018-06-16T02:40:58.024Z,37.85
2018-06-16T02:41:58.194Z,37.76
2018-06-16T02:42:58.403Z,38.17
2018-06-16T02:43:58.580Z,38.81
2018-06-16T02:44:58.763Z,38.62
2018-06-16T02:45:58.955Z,38.14
2018-06-16T02:46:59.118Z,38.05
2018-06-16T02:47:59.304Z,38.05
2018-06-16T02:48:59.490Z,38.24
2018-06-16T02:49:59.689Z,37.66
2018-06-16T02:50:59.852Z,39.10
2018-06-16T02:52:00.045Z,39.29
2018-06-16T02:53:00.219Z,36.71
2018-06-16T02:54:00.404Z,36.33
2018-06-16T02:55:00.595Z,36.71
2018-06-16T02:56:00.773Z,36.71
2018-06-16T02:57:00.956Z,36.99
2018-06-16T02:58:01.121Z,38.53
2018-06-16T02:59:01.298Z,39.29
2018-06-16T03:00:01.485Z,39.58
2018-06-16T03:01:01.686Z,39.39
2018-06-16T03:02:01.848Z,40.92
2018-06-16T03:03:02.042Z,41.11
2018-06-16T03:04:02.205Z,40.72
2018-06-16T03:05:02.420Z,40.72
2018-06-16T03:06:02.608Z,41.11
2018-06-16T03:07:02.754Z,41.39
2018-06-16T03:08:02.955Z,41.39
2018-06-16T03:09:03.123Z,39.77
2018-06-16T03:10:03.331Z,39.10
2018-06-16T03:11:03.483Z,39.10
2018-06-16T03:12:03.661Z,39.48
2018-06-16T03:13:03.844Z,39.86
2018-06-16T03:14:04.027Z,40.53
2018-06-16T03:15:04.225Z,39.48
2018-06-16T03:16:04.405Z,39.58
2018-06-16T03:17:04.574Z,39.58
2018-06-16T03:18:04.790Z,39.77
2018-06-16T03:19:04.955Z,39.39
2018-06-16T03:20:05.123Z,39.86
2018-06-16T03:21:05.308Z,39.86
2018-06-16T03:22:05.494Z,40.34
2018-06-16T03:23:05.670Z,40.92
2018-06-16T03:24:05.864Z,40.92
2018-06-16T03:25:06.050Z,40.82
2018-06-16T03:26:06.233Z,40.63
2018-06-16T03:27:06.434Z,40.06
2018-06-16T03:28:06.636Z,39.84
2018-06-16T03:29:06.804Z,39.58
2018-06-16T03:30:07.040Z,40.32
2018-06-16T03:31:07.187Z,39.84
2018-06-16T03:32:07.394Z,40.03
2018-06-16T03:33:07.516Z,40.13
2018-06-16T03:34:07.704Z,39.18
2018-06-16T03:35:07.920Z,38.70
2018-06-16T03:36:08.066Z,38.41
2018-06-16T03:37:08.255Z,39.65
2018-06-16T03:38:08.435Z,39.37
2018-06-16T03:39:08.610Z,38.79
2018-06-16T03:40:08.794Z,38.51
2018-06-16T03:41:09.004Z,37.84
2018-06-16T03:42:09.155Z,37.46
2018-06-16T03:43:09.345Z,37.46
2018-06-16T03:44:09.540Z,38.12
2018-06-16T03:45:09.693Z,37.65
2018-06-16T03:46:09.874Z,37.46
2018-06-16T03:47:10.101Z,37.65
2018-06-16T03:48:10.229Z,37.65
2018-06-16T03:49:10.407Z,37.26
2018-06-16T03:50:10.646Z,37.84
2018-06-16T03:51:10.774Z,38.51
2018-06-16T03:52:10.958Z,36.12
2018-06-16T03:53:11.140Z,35.06
2018-06-16T03:54:11.328Z,34.30
2018-06-16T03:55:11.509Z,34.11
2018-06-16T03:56:11.691Z,34.20
2018-06-16T03:57:11.878Z,34.01
2018-06-16T03:58:12.060Z,33.92
2018-06-16T03:59:12.241Z,34.59
2018-06-16T04:00:12.432Z,35.16
2018-06-16T04:01:12.611Z,34.88
2018-06-16T04:02:12.787Z,34.69
2018-06-16T04:03:12.986Z,34.59
2018-06-16T04:04:13.142Z,34.69
2018-06-16T04:05:13.336Z,35.93
2018-06-16T04:06:13.507Z,36.88
2018-06-16T04:07:13.705Z,36.50
2018-06-16T04:08:13.883Z,36.60
2018-06-16T04:09:14.054Z,36.60
2018-06-16T04:10:14.252Z,36.60
2018-06-16T04:11:14.411Z,36.69
2018-06-16T04:12:14.605Z,36.50
2018-06-16T04:13:14.811Z,35.93
2018-06-16T04:14:15.000Z,35.45
2018-06-16T04:15:15.182Z,35.16
2018-06-16T04:16:15.367Z,35.06
2018-06-16T04:17:15.535Z,35.64
2018-06-16T04:18:16.298Z,35.45
2018-06-16T04:19:15.936Z,35.64
2018-06-16T04:20:16.155Z,35.55
2018-06-16T04:21:16.316Z,35.55
2018-06-16T04:22:16.540Z,36.02
2018-06-16T04:23:16.675Z,36.98
2018-06-16T04:24:16.860Z,36.88
2018-06-16T04:25:17.071Z,37.26
2018-06-16T04:26:17.231Z,37.38
2018-06-16T04:27:17.402Z,37.28
2018-06-16T04:28:17.614Z,38.24
2018-06-16T04:29:17.791Z,36.61
2018-06-16T04:30:17.973Z,36.04
2018-06-16T04:31:18.128Z,35.94
2018-06-16T04:32:18.326Z,36.43
2018-06-16T04:33:18.516Z,36.43
2018-06-16T04:34:18.664Z,35.08
2018-06-16T04:35:18.850Z,34.32
2018-06-16T04:36:19.031Z,32.21
2018-06-16T04:37:19.211Z,30.40
2018-06-16T04:38:19.385Z,29.16
2018-06-16T04:39:19.560Z,29.44
2018-06-16T04:40:19.747Z,29.25
2018-06-16T04:41:19.943Z,30.13
2018-06-16T04:42:20.110Z,35.58
2018-06-16T04:43:20.284Z,40.77
2018-06-16T04:44:20.484Z,46.62
2018-06-16T04:45:20.648Z,58.05
2018-06-16T04:46:20.817Z,64.79
2018-06-16T04:47:21.002Z,73.83
2018-06-16T04:48:21.188Z,76.81
2018-06-16T04:49:21.395Z,79.68
2018-06-16T04:50:21.551Z,79.91
2018-06-16T04:51:21.738Z,85.33
2018-06-16T04:52:21.912Z,86.77
2018-06-16T04:53:22.141Z,88.79
2018-06-16T04:54:22.307Z,89.55
2018-06-16T04:55:22.468Z,90.32
2018-06-16T04:56:22.710Z,89.94
2018-06-16T04:57:22.821Z,89.94
2018-06-16T04:58:23.008Z,90.84
2018-06-16T04:59:23.197Z,92.14
2018-06-16T05:00:23.400Z,92.52
2018-06-16T05:01:23.569Z,92.86
2018-06-16T05:02:23.757Z,94.59
2018-06-16T05:03:23.936Z,94.15
2018-06-16T05:04:24.128Z,95.60
2018-06-16T05:05:24.346Z,95.45
2018-06-16T05:06:24.539Z,95.74
2018-06-16T05:07:24.717Z,95.74
2018-06-16T05:08:24.896Z,96.27
2018-06-16T05:09:25.073Z,96.32
2018-06-16T05:10:25.248Z,95.70
2018-06-16T05:11:25.439Z,96.37
2018-06-16T05:12:25.638Z,95.45
2018-06-16T05:13:25.851Z,96.56
2018-06-16T05:14:26.009Z,96.17
2018-06-16T05:15:26.196Z,96.27
2018-06-16T05:16:26.421Z,95.98
2018-06-16T05:17:26.565Z,96.32
2018-06-16T05:18:26.750Z,96.42
2018-06-16T05:19:26.931Z,97.09
2018-06-16T05:20:27.138Z,96.75
2018-06-16T05:21:27.355Z,96.22
2018-06-16T05:22:27.475Z,96.70
2018-06-16T05:23:27.657Z,96.94
2018-06-16T05:24:27.857Z,96.56
2018-06-16T05:25:28.056Z,95.79
2018-06-16T05:26:28.240Z,95.03
2018-06-16T05:27:28.457Z,95.79
2018-06-16T05:28:28.623Z,96.27
2018-06-16T05:29:28.802Z,95.55
2018-06-16T05:30:28.996Z,95.41
2018-06-16T05:31:29.254Z,94.74
2018-06-16T05:32:29.427Z,93.97
2018-06-16T05:33:29.618Z,92.91
2018-06-16T05:34:29.808Z,93.87
2018-06-16T05:35:29.993Z,93.92
2018-06-16T05:36:30.190Z,93.92
2018-06-16T05:37:30.383Z,93.73
2018-06-16T05:38:30.548Z,94.31
2018-06-16T05:39:30.733Z,94.01
2018-06-16T05:40:31.348Z,94.01
2018-06-16T05:41:31.131Z,93.63
2018-06-16T05:42:31.299Z,93.82
2018-06-16T05:43:31.487Z,93.30
2018-06-16T05:44:31.683Z,92.53
2018-06-16T05:45:31.897Z,92.33
2018-06-16T05:46:32.066Z,91.42
2018-06-16T05:47:32.241Z,89.89
2018-06-16T05:48:32.423Z,89.41
2018-06-16T05:49:32.608Z,88.07
2018-06-16T05:50:32.791Z,87.30
2018-06-16T05:51:32.983Z,87.30
2018-06-16T05:52:33.820Z,86.54
2018-06-16T05:53:33.381Z,85.92
2018-06-16T05:54:33.566Z,83.81
2018-06-16T05:55:33.748Z,81.70
2018-06-16T05:56:33.942Z,82.56
2018-06-16T05:57:34.128Z,82.75
2018-06-16T05:58:34.314Z,83.04
2018-06-16T05:59:34.503Z,82.75
2018-06-16T06:00:34.747Z,81.02
2018-06-16T06:01:34.866Z,78.77
2018-06-16T06:02:35.094Z,79.34
2018-06-16T06:03:35.279Z,80.78
2018-06-16T06:04:35.431Z,82.03
2018-06-16T06:05:35.624Z,81.74
2018-06-16T06:06:35.787Z,82.41
2018-06-16T06:07:35.978Z,82.79
2018-06-16T06:08:36.142Z,82.18
2018-06-16T06:09:36.333Z,82.75
2018-06-16T06:10:36.589Z,81.70
2018-06-16T06:11:36.715Z,81.12
2018-06-16T06:12:36.900Z,79.97
2018-06-16T06:13:37.085Z,79.49
2018-06-16T06:14:37.274Z,79.72
2018-06-16T06:15:37.452Z,81.74
2018-06-16T06:16:37.657Z,81.64
2018-06-16T06:17:37.846Z,80.40
2018-06-16T06:18:38.033Z,79.82
2018-06-16T06:19:38.203Z,81.16
2018-06-16T06:20:38.418Z,77.61
2018-06-16T06:21:38.598Z,80.01
2018-06-16T06:22:38.819Z,80.43
2018-06-16T06:23:38.961Z,79.28
2018-06-16T06:24:39.165Z,80.78
2018-06-16T06:25:39.343Z,79.82
2018-06-16T06:26:39.563Z,79.72
2018-06-16T06:27:39.699Z,79.53
2018-06-16T06:28:39.917Z,79.57
2018-06-16T06:29:40.099Z,80.58
2018-06-16T06:30:40.258Z,81.97
2018-06-16T06:31:40.452Z,82.35
2018-06-16T06:32:40.618Z,80.73
2018-06-16T06:35:24.039Z,81.30
2018-06-16T06:36:24.394Z,84.08
2018-06-16T06:37:24.450Z,82.78
2018-06-16T06:38:24.682Z,82.68
2018-06-16T06:39:24.977Z,82.87
2018-06-16T06:40:24.994Z,84.51
2018-06-16T06:41:25.144Z,82.40
2018-06-16T06:42:25.320Z,84.12
2018-06-16T06:43:25.538Z,82.78
2018-06-16T06:44:25.687Z,84.12
2018-06-16T06:45:25.876Z,85.47
2018-06-16T06:46:26.056Z,86.09
2018-06-16T06:47:26.241Z,85.13
2018-06-16T06:48:26.436Z,85.71
2018-06-16T06:49:26.630Z,86.18
2018-06-16T06:50:26.784Z,86.57
2018-06-16T06:51:26.978Z,86.28
2018-06-16T06:52:27.143Z,85.71
2018-06-16T06:53:27.339Z,86.18
2018-06-16T06:54:27.512Z,87.53
2018-06-16T06:55:27.695Z,85.41
2018-06-16T06:56:27.880Z,86.38
2018-06-16T06:57:28.075Z,87.86
2018-06-16T06:58:28.239Z,86.13
2018-06-16T06:59:28.438Z,88.34
2018-06-16T07:00:28.611Z,88.63
2018-06-16T07:01:29.495Z,89.30
2018-06-16T07:02:29.042Z,88.44
2018-06-16T07:03:29.234Z,87.48
2018-06-16T07:04:29.416Z,89.88
2018-06-16T07:05:29.628Z,89.30
2018-06-16T07:06:29.817Z,86.46
2018-06-16T07:07:29.986Z,90.21
2018-06-16T07:08:30.242Z,90.21
2018-06-16T07:09:30.391Z,89.06
2018-06-16T07:10:30.564Z,92.52
2018-06-16T07:11:30.716Z,91.75
2018-06-16T07:12:30.903Z,91.46
2018-06-16T07:13:31.084Z,92.33
2018-06-16T07:14:31.275Z,91.27
2018-06-16T07:15:31.458Z,92.13
2018-06-16T07:16:31.621Z,90.16
2018-06-16T07:17:31.813Z,91.13
2018-06-16T07:18:31.994Z,92.47
2018-06-16T07:19:32.178Z,92.47
2018-06-16T07:20:32.398Z,90.73
2018-06-16T07:21:32.568Z,92.08
2018-06-16T07:22:32.793Z,92.95
2018-06-16T07:23:32.942Z,92.03
2018-06-16T07:24:33.158Z,95.50
2018-06-16T07:25:33.304Z,95.50
2018-06-16T07:26:33.493Z,92.80
2018-06-16T07:27:33.684Z,94.34
2018-06-16T07:28:33.879Z,93.67
2018-06-16T07:29:34.073Z,95.26
2018-06-16T07:30:34.261Z,94.78
2018-06-16T07:31:34.424Z,94.44
2018-06-16T07:32:34.613Z,94.64
2018-06-16T07:33:34.810Z,94.64
2018-06-16T07:34:35.019Z,94.64
2018-06-16T07:35:35.181Z,93.96
2018-06-16T07:36:35.391Z,94.20
2018-06-16T07:37:35.544Z,94.49
2018-06-16T07:38:35.745Z,94.01
2018-06-16T07:39:35.905Z,94.30
2018-06-16T07:40:36.143Z,94.01
2018-06-16T07:41:36.323Z,93.87
2018-06-16T07:42:36.476Z,94.06
2018-06-16T07:43:36.662Z,93.48
2018-06-16T07:44:36.858Z,94.06
2018-06-16T07:45:37.077Z,94.34
2018-06-16T07:46:37.224Z,93.87
2018-06-16T07:47:37.429Z,94.34
2018-06-16T07:48:37.580Z,94.06
2018-06-16T07:49:37.785Z,93.48
2018-06-16T07:50:37.954Z,94.82
2018-06-16T07:51:38.122Z,95.02
2018-06-16T07:52:38.335Z,94.44
2018-06-16T07:53:38.525Z,94.54
2018-06-16T07:54:38.679Z,95.02
2018-06-16T07:55:38.862Z,94.82
2018-06-16T07:56:39.098Z,94.44
2018-06-16T07:57:39.242Z,95.36
2018-06-16T07:58:39.427Z,94.68
2018-06-16T07:59:39.632Z,95.36
2018-06-16T08:00:39.801Z,95.21
2018-06-16T08:01:39.984Z,95.60
2018-06-16T08:02:40.175Z,94.92
2018-06-16T08:03:40.385Z,95.16
2018-06-16T08:04:40.522Z,94.49
2018-06-16T08:05:40.715Z,94.68
2018-06-16T08:06:40.905Z,95.84
2018-06-16T08:07:41.134Z,95.84
2018-06-16T08:08:41.283Z,94.92
2018-06-16T08:09:41.459Z,95.50
2018-06-16T08:10:41.682Z,95.31
2018-06-16T08:11:41.846Z,95.64
2018-06-16T08:12:42.070Z,95.69
2018-06-16T08:13:42.207Z,95.31
2018-06-16T08:14:42.392Z,95.50
2018-06-16T08:15:42.572Z,96.17
2018-06-16T08:16:42.806Z,95.89
2018-06-16T08:17:42.967Z,96.17
2018-06-16T08:18:43.131Z,95.69
2018-06-16T08:19:43.351Z,95.93
2018-06-16T08:20:43.499Z,95.74
2018-06-16T08:21:43.681Z,96.22
2018-06-16T08:22:43.904Z,95.93
2018-06-16T08:23:44.066Z,95.59
2018-06-16T08:24:44.229Z,95.88
2018-06-16T08:25:44.445Z,95.98
2018-06-16T08:26:44.621Z,97.42
2018-06-16T08:27:44.795Z,95.93
2018-06-16T08:28:44.990Z,95.74
2018-06-16T08:29:45.168Z,95.25
2018-06-16T08:30:45.439Z,95.45
2018-06-16T08:31:45.555Z,95.74
2018-06-16T08:32:45.760Z,96.36
2018-06-16T08:33:45.919Z,95.69
2018-06-16T08:34:46.153Z,95.11
2018-06-16T08:35:46.319Z,96.12
2018-06-16T08:36:46.472Z,95.93
2018-06-16T08:37:46.653Z,97.42
2018-06-16T08:38:46.889Z,95.68
2018-06-16T08:39:47.028Z,94.14
2018-06-16T08:40:47.219Z,93.41
2018-06-16T08:41:47.436Z,93.17
2018-06-16T08:42:47.590Z,92.40
2018-06-16T08:43:47.801Z,92.79
2018-06-16T08:44:47.971Z,92.40
2018-06-16T08:45:48.187Z,93.02
2018-06-16T08:46:48.368Z,91.63
2018-06-16T08:47:48.530Z,92.83
2018-06-16T08:48:48.715Z,93.70
2018-06-16T08:49:48.887Z,93.32
2018-06-16T08:50:49.104Z,94.28
2018-06-16T08:51:49.300Z,92.58
2018-06-16T08:52:49.445Z,92.49
2018-06-16T08:53:49.631Z,92.54
2018-06-16T08:54:49.832Z,94.28
2018-06-16T08:55:50.028Z,94.48
2018-06-16T08:56:50.216Z,94.96
2018-06-16T08:57:50.408Z,93.80
2018-06-16T08:58:50.597Z,93.22
2018-06-16T08:59:50.781Z,93.70
2018-06-16T09:00:50.973Z,94.13
2018-06-16T09:01:51.176Z,94.91
2018-06-16T09:02:51.349Z,92.73
2018-06-16T09:03:51.533Z,92.05
2018-06-16T09:04:51.728Z,89.92
2018-06-16T09:05:51.930Z,89.73
2018-06-16T09:06:52.107Z,92.34
2018-06-16T09:07:52.328Z,91.62
2018-06-16T09:08:52.473Z,91.58
2018-06-16T09:09:52.663Z,93.17
2018-06-16T09:10:52.828Z,93.08
2018-06-16T09:11:53.018Z,92.69
2018-06-16T09:12:53.233Z,93.41
2018-06-16T09:13:53.432Z,92.16
2018-06-16T09:14:53.581Z,92.74
2018-06-16T09:15:53.768Z,93.12
2018-06-16T09:16:53.958Z,94.28
2018-06-16T09:17:54.151Z,93.41
2018-06-16T09:18:54.332Z,91.67
2018-06-16T09:19:54.513Z,91.77
2018-06-16T09:20:54.713Z,91.48
2018-06-16T09:21:54.880Z,92.64
2018-06-16T09:22:55.066Z,93.32
2018-06-16T09:23:55.267Z,95.34
2018-06-16T09:24:55.446Z,93.36
2018-06-16T09:25:55.640Z,92.78
2018-06-16T09:26:55.837Z,92.00
2018-06-16T09:27:56.049Z,91.52
2018-06-16T09:28:56.207Z,92.20
2018-06-16T09:29:56.399Z,92.49
2018-06-16T09:30:56.583Z,92.40
2018-06-16T09:31:56.828Z,93.36
2018-06-16T09:32:56.966Z,93.51
2018-06-16T09:33:57.170Z,92.44
2018-06-16T09:34:57.352Z,92.15
2018-06-16T09:35:57.563Z,92.49
2018-06-16T09:36:57.750Z,88.81
2018-06-16T09:37:57.939Z,87.84
2018-06-16T09:38:58.177Z,89.09
2018-06-16T09:39:58.379Z,88.61
2018-06-16T09:40:58.576Z,88.37
2018-06-16T09:41:58.841Z,89.92
2018-06-16T09:42:59.013Z,90.02
2018-06-16T09:43:59.165Z,89.73
2018-06-16T09:44:59.336Z,88.53
2018-06-16T09:45:59.554Z,89.11
2018-06-16T09:46:59.724Z,90.21
2018-06-16T09:47:59.931Z,89.92
2018-06-16T09:49:00.112Z,89.88
2018-06-16T09:50:00.304Z,90.65
2018-06-16T09:51:00.495Z,89.49
2018-06-16T09:52:00.695Z,89.49
2018-06-16T09:53:00.910Z,91.82
2018-06-16T09:54:01.104Z,87.79
2018-06-16T09:55:01.282Z,88.85
2018-06-16T09:56:01.454Z,85.96
2018-06-16T09:57:01.655Z,86.09
2018-06-16T09:58:01.842Z,86.87
2018-06-16T09:59:02.062Z,88.37
2018-06-16T10:00:02.243Z,86.96
2018-06-16T10:01:02.434Z,88.17
2018-06-16T10:02:02.649Z,88.37
2018-06-16T10:03:02.818Z,86.57
2018-06-16T10:04:03.006Z,83.17
2018-06-16T10:05:03.242Z,84.49
2018-06-16T10:06:03.424Z,85.40
2018-06-16T10:07:03.596Z,83.27
2018-06-16T10:08:03.794Z,82.17
2018-06-16T10:09:03.985Z,80.62
2018-06-16T10:10:04.184Z,82.22
2018-06-16T10:11:04.376Z,83.34
2018-06-16T10:12:04.578Z,83.67
2018-06-16T10:13:04.794Z,85.61
2018-06-16T10:14:04.967Z,83.48
2018-06-16T10:15:05.128Z,84.49
2018-06-16T10:16:05.328Z,85.36
2018-06-16T10:17:05.498Z,85.85
2018-06-16T10:18:05.694Z,82.88
2018-06-16T10:19:05.882Z,80.36
2018-06-16T10:20:06.124Z,82.10
2018-06-16T10:21:06.262Z,78.13
2018-06-16T10:22:06.457Z,76.97
2018-06-16T10:23:06.626Z,78.97
2018-06-16T10:24:06.816Z,80.13
2018-06-16T10:25:07.020Z,80.57
2018-06-16T10:26:07.225Z,81.12
2018-06-16T10:27:07.391Z,81.70
2018-06-16T10:28:07.637Z,81.60
2018-06-16T10:29:07.818Z,81.50
2018-06-16T10:30:07.993Z,81.12
2018-06-16T10:31:08.175Z,82.95
2018-06-16T10:32:08.414Z,84.11
2018-06-16T10:33:08.556Z,83.83
2018-06-16T10:34:08.749Z,83.58
2018-06-16T10:35:08.935Z,84.93
2018-06-16T10:36:09.127Z,82.90
2018-06-16T10:37:09.316Z,80.77
2018-06-16T10:38:09.497Z,81.93
2018-06-16T10:39:09.685Z,81.10
2018-06-16T10:40:09.882Z,80.90
2018-06-16T10:41:10.082Z,81.10
2018-06-16T10:42:10.271Z,79.84
2018-06-16T10:43:10.454Z,77.36
2018-06-16T10:44:10.658Z,78.81
2018-06-16T10:45:10.828Z,79.63
2018-06-16T10:46:11.009Z,77.69
2018-06-16T10:47:11.203Z,76.58
2018-06-16T10:48:11.383Z,78.13
2018-06-16T10:49:11.572Z,77.16
2018-06-16T10:50:11.764Z,75.90
2018-06-16T10:51:11.954Z,76.25
2018-06-16T10:52:12.151Z,75.77
2018-06-16T10:53:12.355Z,77.26
2018-06-16T10:54:12.519Z,75.81
2018-06-16T10:55:12.727Z,75.13
2018-06-16T10:56:12.884Z,75.81
2018-06-16T10:57:13.074Z,75.81
2018-06-16T10:58:13.268Z,81.23
2018-06-16T10:59:13.460Z,79.72
2018-06-16T11:00:13.676Z,77.01
2018-06-16T11:01:13.833Z,77.20
2018-06-16T11:02:14.039Z,75.42
2018-06-16T11:03:14.203Z,76.00
2018-06-16T11:04:14.394Z,75.48
2018-06-16T11:05:14.574Z,76.54
2018-06-16T11:06:14.757Z,77.22
2018-06-16T11:07:14.935Z,76.29
2018-06-16T11:08:15.160Z,76.68
2018-06-16T11:09:15.381Z,76.78
2018-06-16T11:10:15.545Z,77.94
2018-06-16T11:11:15.703Z,77.36
2018-06-16T11:12:15.882Z,74.74
2018-06-16T11:13:16.075Z,74.16
2018-06-16T11:14:16.281Z,75.51
2018-06-16T11:15:16.476Z,79.68
2018-06-16T11:16:16.652Z,78.56
2018-06-16T11:17:16.826Z,80.21
2018-06-16T11:18:17.031Z,76.75
2018-06-16T11:19:17.241Z,75.10
2018-06-16T11:20:17.385Z,75.88
2018-06-16T11:21:17.579Z,76.50
2018-06-16T11:22:17.771Z,75.82
2018-06-16T11:23:17.962Z,74.62
2018-06-16T11:24:18.159Z,74.71
2018-06-16T11:25:18.378Z,74.04
2018-06-16T11:26:18.536Z,75.20
2018-06-16T11:27:18.744Z,74.29
2018-06-16T11:28:19.065Z,73.61
2018-06-16T11:29:19.132Z,73.38
2018-06-16T11:30:19.339Z,74.29
2018-06-16T11:31:19.515Z,71.28
2018-06-16T11:32:19.709Z,73.26
2018-06-16T11:33:19.906Z,71.64
2018-06-16T11:34:20.091Z,70.97
2018-06-16T11:35:20.273Z,69.90
2018-06-16T11:36:20.466Z,69.60
2018-06-16T11:37:20.652Z,72.91
2018-06-16T11:38:20.843Z,70.29
2018-06-16T11:39:21.104Z,68.63
2018-06-16T11:40:21.259Z,67.96
2018-06-16T11:41:21.444Z,67.86
2018-06-16T11:42:21.661Z,67.86
2018-06-16T11:43:21.816Z,67.92
2018-06-16T11:44:22.024Z,68.79
2018-06-16T11:45:22.191Z,68.66
2018-06-16T11:46:22.388Z,69.34
2018-06-16T11:47:22.580Z,69.15
2018-06-16T11:48:22.771Z,68.63
2018-06-16T11:49:22.954Z,69.12
2018-06-16T11:50:23.156Z,69.54
2018-06-16T11:51:23.362Z,69.83
2018-06-16T11:52:23.543Z,71.12
2018-06-16T11:53:23.735Z,68.89
2018-06-16T11:54:23.930Z,68.37
2018-06-16T11:55:24.128Z,69.15
2018-06-16T11:56:24.313Z,69.83
2018-06-16T11:57:24.500Z,70.90
2018-06-16T11:58:24.733Z,69.34
2018-06-16T11:59:24.904Z,69.89
2018-06-16T12:00:25.065Z,68.92
2018-06-16T12:01:25.251Z,69.64
2018-06-16T12:02:25.448Z,71.58
2018-06-16T12:03:25.640Z,76.07
2018-06-16T12:04:25.830Z,74.13
2018-06-16T12:05:26.019Z,71.55
2018-06-16T12:06:26.223Z,70.87
2018-06-16T12:07:26.419Z,69.12
2018-06-16T12:08:26.637Z,68.44
2018-06-16T12:09:26.791Z,70.00
2018-06-16T12:10:26.974Z,68.60
2018-06-16T12:11:27.190Z,68.41
2018-06-16T12:12:27.383Z,68.28
2018-06-16T12:13:27.581Z,69.64
2018-06-16T12:14:27.769Z,70.41
2018-06-16T12:15:27.968Z,70.73
2018-06-16T12:16:28.148Z,70.25
2018-06-16T12:17:28.344Z,68.86
2018-06-16T12:18:28.515Z,69.44
2018-06-16T12:19:28.739Z,69.06
2018-06-16T12:20:28.925Z,70.31
2018-06-16T12:21:29.095Z,71.67
2018-06-16T12:22:29.289Z,71.58
2018-06-16T12:23:29.486Z,69.64
2018-06-16T12:24:29.676Z,70.03
2018-06-16T12:25:29.856Z,73.80
2018-06-16T12:26:30.044Z,70.93
2018-06-16T12:27:30.264Z,69.38
2018-06-16T12:28:30.424Z,67.34
2018-06-16T12:29:30.629Z,66.86
2018-06-16T12:30:30.830Z,68.70
2018-06-16T12:31:31.024Z,70.06
2018-06-16T12:32:31.233Z,70.35
2018-06-16T12:33:31.462Z,68.51
2018-06-16T12:34:31.610Z,68.47
2018-06-16T12:35:31.801Z,69.18
2018-06-16T12:36:31.999Z,68.37
2018-06-16T12:37:32.187Z,68.47
2018-06-16T12:38:32.395Z,68.57
2018-06-16T12:39:32.565Z,67.89
2018-06-16T12:40:32.791Z,68.47
2018-06-16T12:41:32.938Z,69.83
2018-06-16T12:42:33.151Z,69.86
2018-06-16T12:43:33.321Z,68.76
2018-06-16T12:44:33.544Z,68.57
2018-06-16T12:45:33.724Z,69.54
2018-06-16T12:46:33.889Z,70.12
2018-06-16T12:47:34.082Z,70.93
2018-06-16T12:48:34.284Z,71.70
2018-06-16T12:49:34.441Z,70.73
2018-06-16T12:50:34.643Z,69.51
2018-06-16T12:51:34.826Z,69.22
2018-06-16T12:52:35.038Z,68.83
2018-06-16T12:53:35.204Z,68.12
2018-06-16T12:54:35.440Z,67.92
2018-06-16T12:55:35.601Z,69.22
2018-06-16T12:56:35.790Z,67.96